Big Stone City, SD (57216)

7:29 PM CDT on September 18, 2014 (GMT -0500)
Ortonville Municipal-Martinson | Change Station
CLOSE
Current Station
Airport
Location: Ortonville,
Elevation: 1099 ft
Nearby Weather Stations

Elev 1099 ft 45.31 °N, 96.42 °W | Updated 15 minutes ago

Clear
Clear
70 °F
Feels Like 70 °F
N
5
Wind Variable Wind from SSE

Today
High -- | Low -- °F
--% Chance of Precip.
Yesterday
High -- | Low -- °F
Precip. -- in
7:08 AM 7:31 PM
Waning Crescent, 23% visible
Pressure 29.87 in
Visibility 10.0 miles
Clouds Clear
Dew Point 55 °F
Humidity 60%
Rainfall 0.00 in
Snow Depth 0 in
UV 0 out of 12
Pollen 3.30 out of 12
Air Quality Not available.
Flu Activity Not available.
METAR KVVV 190014Z AUTO 15004KT 10SM CLR 21/13 A2987 RMK AO2

More Conditions Fewer Conditions

Pressure 29.87 in
Visibility 10.0 miles
Clouds Clear
Dew Point 55 °F
Humidity 60%
Rainfall 0.00 in
Snow Depth 0 in
UV 0 out of 12
Pollen 3.30 out of 12
Air Quality Not available.
Flu Activity Not available.
METAR KVVV 190014Z AUTO 15004KT 10SM CLR 21/13 A2987 RMK AO2

More Conditions Fewer Conditions

10-Day Weather Forecast

Almanac

Astronomy

Sep. 18, 2014 Rise Set
Actual Time 7:08 AM CDT 7:31 PM CDT
Civil Twilight 6:38 AM CDT 8:00 PM CDT
Nautical Twilight 6:03 AM CDT 8:35 PM CDT
Astronomical Twilight 5:27 AM CDT 9:11 PM CDT
Moon 1:50 AM CDT (9/18) 4:33 PM CDT (9/18)
Length of Visible Light 13h 22m
Length of Day
12h 22m
Tomorrow will be 3m 8s shorter.
Waning Crescent, 23% of the Moon is Illuminated
Today
Waning Crescent
Sep 24
New
Oct 1
First Quarter
Oct 8
Full
Oct 15
Last Quarter

Today's Extremes

State Highs State Lows

Community

WunderPhotos

Upload Photos

1,754,501 photos uploaded!

WunderBlogs® & News

Nearby

Snow Depth

Station Depth Elevation
Blind Park 0 in 6890 ft

Earthquake Activity

City Distance Mag. Time & Date
No recent earthquake activity has been reported nearby.
Minimum magnitude displayed is 2.5.

Coastal Water Temperatures

Place Temperature
No Stations Reporting

Nearby Weather Stations